Weather at Hale County Airport

Public forecast

Using degrees Fahrenheit for public forecast. Weather courtesy of forecast.io.

Current aviation weather report (METAR) for Hale County Airport

Report is more than 2 hours old.

Retrieved 2021/10/25 14:35 UTC (2 hours ago):

KPVW 251435Z AUTO 13003KT 10SM CLR 13/07 A3004 RMK AO2 T01320065

Aviation forecast (TAF) for Hale County Airport

Retrieved 2021/10/25 12:22 UTC (5 hours ago):

TAF KPVW 251120Z 2512/2612 VRB06KT P6SM FEW250 FM251800 17011KT P6SM SCT250